createdAt,value
2022-08-10T00:02:35.626Z,20.34
2022-08-10T00:05:43.675Z,20.30
2022-08-10T00:08:51.693Z,20.27
2022-08-10T00:11:57.037Z,20.23
2022-08-10T00:15:04.217Z,20.20
2022-08-10T00:18:09.881Z,20.16
2022-08-10T00:21:27.148Z,20.16
2022-08-10T00:24:29.881Z,20.13
2022-08-10T00:27:57.859Z,20.11
2022-08-10T00:30:43.535Z,20.08
2022-08-10T00:33:50.425Z,20.06
2022-08-10T00:36:56.489Z,20.03
2022-08-10T00:40:02.649Z,19.99
2022-08-10T00:43:08.294Z,19.99
2022-08-10T00:46:13.276Z,19.98
2022-08-10T00:49:18.705Z,19.94
2022-08-10T00:52:24.205Z,19.91
2022-08-10T00:55:30.398Z,19.87
2022-08-10T00:58:36.486Z,19.82
2022-08-10T01:02:08.441Z,19.78
2022-08-10T01:04:59.864Z,19.73
2022-08-10T01:08:19.314Z,19.69
2022-08-10T01:12:37.921Z,19.66
2022-08-10T01:15:15.174Z,19.62
2022-08-10T01:18:37.931Z,19.58
2022-08-10T01:21:57.194Z,19.55
2022-08-10T01:25:20.249Z,19.54
2022-08-10T01:28:39.313Z,19.50
2022-08-10T01:31:48.848Z,19.47
2022-08-10T01:35:01.188Z,19.44
2022-08-10T01:38:19.715Z,19.40
2022-08-10T01:41:45.615Z,19.37
2022-08-10T01:44:51.957Z,19.33
2022-08-10T01:48:18.453Z,19.33
2022-08-10T01:51:44.379Z,19.30
2022-08-10T01:54:49.934Z,19.27
2022-08-10T01:57:58.963Z,19.24
2022-08-10T02:01:05.560Z,19.22
2022-08-10T02:04:16.639Z,19.23
2022-08-10T02:07:23.848Z,19.22
2022-08-10T02:10:32.923Z,19.22
2022-08-10T02:13:38.275Z,19.22
2022-08-10T02:16:43.720Z,19.21
2022-08-10T02:19:51.171Z,19.20
2022-08-10T02:23:01.998Z,19.19
2022-08-10T02:26:09.987Z,19.18
2022-08-10T02:29:16.675Z,19.19
2022-08-10T02:32:36.588Z,19.20
2022-08-10T02:35:54.561Z,19.18
2022-08-10T02:38:58.563Z,19.19
2022-08-10T02:45:16.176Z,19.22
2022-08-10T02:45:33.902Z,19.21
2022-08-10T02:48:44.347Z,19.23
2022-08-10T02:52:16.407Z,19.24
2022-08-10T02:55:27.167Z,19.23
2022-08-10T02:58:44.923Z,19.24
2022-08-10T03:01:55.578Z,19.23
2022-08-10T03:05:02.911Z,19.21
2022-08-10T03:08:18.568Z,19.21
2022-08-10T03:12:35.035Z,19.21
2022-08-10T03:14:42.592Z,19.19
2022-08-10T03:17:56.860Z,19.23
2022-08-10T03:20:59.092Z,19.26
2022-08-10T03:24:26.156Z,19.29
2022-08-10T03:27:13.077Z,19.27
2022-08-10T03:30:28.366Z,19.28
2022-08-10T03:33:28.786Z,19.31
2022-08-10T03:36:43.987Z,19.37
2022-08-10T03:39:46.698Z,19.47
2022-08-10T03:42:55.065Z,19.54
2022-08-10T03:46:05.893Z,19.62
2022-08-10T03:49:13.203Z,19.67
2022-08-10T03:52:22.958Z,19.76
2022-08-10T03:56:29.666Z,19.85
2022-08-10T03:58:38.779Z,19.95
2022-08-10T04:02:52.880Z,20.07
2022-08-10T04:04:52.867Z,20.19
2022-08-10T04:08:00.849Z,20.33
2022-08-10T04:11:08.957Z,20.44
2022-08-10T04:14:38.510Z,20.51
2022-08-10T04:18:02.637Z,20.58
2022-08-10T04:21:06.173Z,20.66
2022-08-10T04:24:26.795Z,20.74
2022-08-10T04:27:27.619Z,20.82
2022-08-10T04:30:38.451Z,20.86
2022-08-10T04:33:43.764Z,20.89
2022-08-10T04:36:53.443Z,20.95
2022-08-10T04:40:01.394Z,21.01
2022-08-10T04:43:13.210Z,21.08
2022-08-10T04:46:55.710Z,21.15
2022-08-10T04:49:54.228Z,21.25
2022-08-10T04:52:46.338Z,21.35
2022-08-10T04:55:52.407Z,21.38
2022-08-10T04:59:01.410Z,21.39
2022-08-10T05:02:29.068Z,21.42
2022-08-10T05:05:28.528Z,21.50
2022-08-10T05:08:35.706Z,21.58
2022-08-10T05:11:44.074Z,21.59
2022-08-10T05:14:53.905Z,21.65
2022-08-10T05:18:09.783Z,21.75
2022-08-10T05:22:03.233Z,21.78
2022-08-10T05:24:19.142Z,21.83
2022-08-10T05:27:25.539Z,21.82
2022-08-10T05:30:36.254Z,21.83
2022-08-10T05:33:47.428Z,21.89
2022-08-10T05:37:00.586Z,21.99
2022-08-10T05:40:11.257Z,22.03
2022-08-10T05:43:17.195Z,22.04
2022-08-10T05:46:28.305Z,22.06
2022-08-10T05:49:39.557Z,22.09
2022-08-10T05:52:46.415Z,22.16
2022-08-10T05:55:54.672Z,22.24
2022-08-10T05:59:01.411Z,22.32
2022-08-10T06:02:32.732Z,22.39
2022-08-10T06:05:33.568Z,22.41
2022-08-10T06:08:42.407Z,22.42
2022-08-10T06:12:24.131Z,22.45
2022-08-10T06:15:23.421Z,22.50
2022-08-10T06:18:23.618Z,22.62
2022-08-10T06:21:33.870Z,22.72
2022-08-10T06:25:12.348Z,22.78
2022-08-10T06:27:58.506Z,22.85
2022-08-10T06:31:09.255Z,22.88
2022-08-10T06:34:20.095Z,22.91
2022-08-10T06:37:27.861Z,22.99
2022-08-10T06:40:34.087Z,23.09
2022-08-10T06:43:41.200Z,23.15
2022-08-10T06:46:53.668Z,23.10
2022-08-10T06:50:09.219Z,23.08
2022-08-10T12:29:59.077Z,27.01
2022-08-10T12:33:23.192Z,26.91
2022-08-10T12:36:37.484Z,26.88
2022-08-10T12:39:46.693Z,26.85
2022-08-10T12:44:07.666Z,26.87
2022-08-10T12:46:34.533Z,26.95
2022-08-10T12:50:23.793Z,26.98
2022-08-10T12:53:19.573Z,26.90
2022-08-10T12:56:25.961Z,26.81
2022-08-10T12:59:43.403Z,26.84
2022-08-10T13:02:49.509Z,26.78
2022-08-10T13:06:02.871Z,26.79
2022-08-10T13:09:16.656Z,26.80
2022-08-10T13:12:34.809Z,26.79
2022-08-10T13:15:50.782Z,26.77
2022-08-10T13:18:57.297Z,26.80
2022-08-10T13:22:03.259Z,26.79
2022-08-10T13:25:02.878Z,26.76
2022-08-10T13:28:01.348Z,26.75
2022-08-10T13:31:05.898Z,26.81
2022-08-10T13:34:42.371Z,26.77
2022-08-10T13:37:25.922Z,26.76
2022-08-10T13:40:36.930Z,26.77
2022-08-10T13:43:44.570Z,26.75
2022-08-10T13:46:55.598Z,26.64
2022-08-10T13:50:10.813Z,26.56
2022-08-10T13:53:26.960Z,26.61
2022-08-10T13:56:34.966Z,26.63
2022-08-10T14:00:35.306Z,26.57
2022-08-10T14:03:04.120Z,26.57
2022-08-10T14:06:12.689Z,26.57
2022-08-10T14:09:24.355Z,26.54
2022-08-10T14:12:33.409Z,26.52
2022-08-10T14:15:44.960Z,26.40
2022-08-10T14:18:52.946Z,26.24
2022-08-10T14:21:59.493Z,26.13
2022-08-10T14:25:05.598Z,26.01
2022-08-10T14:28:12.265Z,26.01
2022-08-10T14:31:24.688Z,26.00
2022-08-10T14:34:59.499Z,25.94
2022-08-10T14:37:56.684Z,25.87
2022-08-10T14:41:05.401Z,25.78
2022-08-10T14:44:16.202Z,25.74
2022-08-10T14:47:53.687Z,25.75
2022-08-10T14:50:35.766Z,25.72
2022-08-10T14:53:42.581Z,25.63
2022-08-10T14:56:52.160Z,25.64
2022-08-10T15:00:24.834Z,25.70
2022-08-10T15:03:16.067Z,25.76
2022-08-10T15:06:17.070Z,25.79
2022-08-10T15:09:59.435Z,25.80
2022-08-10T15:12:39.297Z,25.74
2022-08-10T15:16:09.442Z,25.73
2022-08-10T15:19:01.515Z,25.74
2022-08-10T15:22:35.687Z,25.67
2022-08-10T15:25:24.657Z,25.61
2022-08-10T15:28:31.407Z,25.55
2022-08-10T15:31:39.546Z,25.50
2022-08-10T15:35:04.940Z,25.48
2022-08-10T15:38:18.202Z,25.44
2022-08-10T15:41:57.228Z,25.32
2022-08-10T15:44:36.321Z,25.23
2022-08-10T15:47:52.736Z,25.14
2022-08-10T15:51:06.115Z,25.07
2022-08-10T15:54:17.853Z,24.94
2022-08-10T15:57:25.533Z,24.91
2022-08-10T16:00:33.863Z,24.93
2022-08-10T16:03:54.576Z,24.92
2022-08-10T16:07:21.754Z,24.91
2022-08-10T16:10:36.605Z,24.83
2022-08-10T16:13:50.782Z,24.74
2022-08-10T16:16:50.431Z,24.67
2022-08-10T16:20:06.306Z,24.58
2022-08-10T16:23:21.219Z,24.50
2022-08-10T16:26:32.432Z,24.35
2022-08-10T16:29:56.437Z,24.25
2022-08-10T16:32:48.588Z,24.15
2022-08-10T16:35:54.810Z,24.05
2022-08-10T16:39:04.717Z,23.93
2022-08-10T16:42:14.476Z,23.82
2022-08-10T16:45:33.962Z,23.72
2022-08-10T16:48:49.822Z,23.60
2022-08-10T16:51:47.471Z,23.51
2022-08-10T16:54:53.550Z,23.46
2022-08-10T16:58:02.096Z,23.38
2022-08-10T17:01:08.437Z,23.31
2022-08-10T17:04:16.743Z,23.23
2022-08-10T17:07:35.195Z,23.18
2022-08-10T17:10:33.818Z,23.08
2022-08-10T17:13:39.149Z,23.03
2022-08-10T17:16:56.828Z,22.93
2022-08-10T17:20:31.653Z,22.86
2022-08-10T17:23:15.403Z,22.80
2022-08-10T17:26:35.625Z,22.74
2022-08-10T17:29:58.924Z,22.68
2022-08-10T17:33:08.195Z,22.60
2022-08-10T17:36:17.167Z,22.54
2022-08-10T17:39:27.258Z,22.48
2022-08-10T17:42:35.765Z,22.46
2022-08-10T17:45:49.470Z,22.39
2022-08-10T17:48:56.941Z,22.32
2022-08-10T17:52:09.064Z,22.29
2022-08-10T17:55:19.859Z,22.15
2022-08-10T17:58:34.613Z,22.15
2022-08-10T18:02:01.905Z,22.13
2022-08-10T18:04:53.395Z,22.08
2022-08-10T18:08:07.739Z,22.05
2022-08-10T18:11:17.143Z,22.02
2022-08-10T18:14:25.719Z,21.97
2022-08-10T18:17:39.164Z,21.93
2022-08-10T18:20:50.547Z,21.88
2022-08-10T18:23:57.164Z,21.84
2022-08-10T18:27:05.077Z,21.81
2022-08-10T18:30:18.462Z,21.76
2022-08-10T18:33:27.391Z,21.70
2022-08-10T18:36:34.435Z,21.65
2022-08-10T18:39:48.827Z,21.63
2022-08-10T18:44:11.159Z,21.58
2022-08-10T18:46:15.157Z,21.56
2022-08-10T18:49:22.792Z,21.54
2022-08-10T18:52:28.695Z,21.52
2022-08-10T18:56:08.694Z,21.53
2022-08-10T18:59:28.581Z,21.50
2022-08-10T19:03:17.414Z,21.50
2022-08-10T19:06:48.346Z,21.48
2022-08-10T19:10:46.108Z,21.42
2022-08-10T19:14:34.161Z,21.39
2022-08-10T19:18:03.346Z,21.37
2022-08-10T19:21:07.113Z,21.35
2022-08-10T19:24:41.449Z,21.30
2022-08-10T19:28:06.686Z,21.24
2022-08-10T19:31:55.507Z,21.20
2022-08-10T19:35:32.098Z,21.16
2022-08-10T19:38:50.787Z,21.14
2022-08-10T19:42:31.100Z,21.12
2022-08-10T19:45:55.878Z,21.08
2022-08-10T19:49:16.453Z,21.06
2022-08-10T19:52:48.828Z,21.03
2022-08-10T19:56:33.573Z,20.99
2022-08-10T20:00:15.741Z,20.95
2022-08-10T20:03:33.943Z,20.91
2022-08-10T20:07:02.696Z,20.88
2022-08-10T20:10:18.735Z,20.84
2022-08-10T20:13:35.617Z,20.80
2022-08-10T20:16:49.174Z,20.77
2022-08-10T20:20:26.531Z,20.74
2022-08-10T20:23:53.922Z,20.74
2022-08-10T20:27:57.449Z,20.70
2022-08-10T20:30:29.270Z,20.68
2022-08-10T20:33:49.297Z,20.64
2022-08-10T20:37:11.496Z,20.60
2022-08-10T20:40:42.361Z,20.55
2022-08-10T20:44:14.369Z,20.50
2022-08-10T20:47:37.260Z,20.47
2022-08-10T20:50:50.412Z,20.44
2022-08-10T20:54:03.006Z,20.41
2022-08-10T20:58:04.697Z,20.39
2022-08-10T21:01:17.702Z,20.35
2022-08-10T21:04:49.263Z,20.34
2022-08-10T21:08:11.012Z,20.31
2022-08-10T21:11:54.067Z,20.29
2022-08-10T21:15:41.720Z,20.26
2022-08-10T21:19:07.918Z,20.24
2022-08-10T21:22:39.044Z,20.22
2022-08-10T21:26:06.695Z,20.19
2022-08-10T21:29:53.937Z,20.18
2022-08-10T21:33:24.273Z,20.15
2022-08-10T21:37:08.045Z,20.12
2022-08-10T21:40:36.178Z,20.10
2022-08-10T21:44:26.266Z,20.07
2022-08-10T21:48:17.204Z,20.06
2022-08-10T21:52:07.542Z,20.03
2022-08-10T21:55:59.321Z,20.01
2022-08-10T21:59:44.302Z,19.99
2022-08-10T22:03:10.432Z,19.98
2022-08-10T22:06:35.289Z,19.97
2022-08-10T22:10:06.584Z,19.95
2022-08-10T22:13:34.459Z,19.93
2022-08-10T22:18:03.586Z,19.89
2022-08-10T22:20:49.734Z,19.88
2022-08-10T22:24:29.406Z,19.86
2022-08-10T22:28:17.435Z,19.85
2022-08-10T22:31:41.644Z,19.83
2022-08-10T22:35:39.144Z,19.80
2022-08-10T22:39:16.672Z,19.79
2022-08-10T22:42:59.602Z,19.78
2022-08-10T22:46:29.553Z,19.76
2022-08-10T22:49:39.211Z,19.75
2022-08-10T22:52:58.909Z,19.74
2022-08-10T22:56:17.437Z,19.73
2022-08-10T22:59:24.154Z,19.74
2022-08-10T23:02:46.700Z,19.75
2022-08-10T23:05:59.985Z,19.76
2022-08-10T23:09:10.548Z,19.75
2022-08-10T23:12:21.234Z,19.74
2022-08-10T23:16:02.097Z,19.72
2022-08-10T23:19:17.578Z,19.70
2022-08-10T23:22:31.634Z,19.68
2022-08-10T23:25:38.719Z,19.67
2022-08-10T23:28:58.300Z,19.64
2022-08-10T23:32:06.834Z,19.60
2022-08-10T23:36:30.006Z,19.57
2022-08-10T23:38:13.723Z,19.55
2022-08-10T23:41:19.340Z,19.54
2022-08-10T23:44:24.898Z,19.54
2022-08-10T23:47:34.762Z,19.53
2022-08-10T23:50:43.421Z,19.52
2022-08-10T23:53:53.954Z,19.50
2022-08-10T23:57:05.024Z,19.48
